Time;durP1;ratioP1;P1;durP2;ratioP2;P2;SDS_P1;SDS_P2;PMS_P1;PMS_P2;Temp;Humidity;BMP_temperature;BMP_pressure;BME280_temperature;BME280_humidity;BME280_pressure;Samples;Min_cycle;Max_cycle;Signal;HPM_P1;HPM_P2
2021/12/03 00:01:31;;;;;;;2.58;1.02;;;;;;;;;;5037136;28;20367;-61
2021/12/03 00:03:56;;;;;;;0.95;0.65;;;;;;;;;;5038832;28;20044;-65
2021/12/03 00:06:22;;;;;;;1.02;0.50;;;;;;;;;;5037170;28;20132;-62
2021/12/03 00:08:50;;;;;;;2.28;1.00;;;;;;;;;;5039914;28;20044;-62
2021/12/03 00:11:15;;;;;;;1.35;0.70;;;;;;;;;;5038245;28;20017;-61
2021/12/03 00:13:41;;;;;;;0.50;0.50;;;;;;;;;;5037683;28;20044;-60
2021/12/03 00:16:06;;;;;;;1.50;0.90;;;;;;;;;;5036837;28;20094;-61
2021/12/03 00:18:32;;;;;;;1.42;0.57;;;;;;;;;;5039770;28;20025;-61
2021/12/03 00:21:00;;;;;;;1.58;0.80;;;;;;;;;;5038837;28;20535;-62
2021/12/03 00:23:27;;;;;;;2.08;0.43;;;;;;;;;;5041714;28;20090;-63
2021/12/03 00:25:53;;;;;;;0.68;0.47;;;;;;;;;;5037286;28;20056;-62
2021/12/03 00:28:24;;;;;;;3.03;1.00;;;;;;;;;;5036770;28;20056;-61
2021/12/03 00:30:50;;;;;;;0.90;0.52;;;;;;;;;;5036749;28;20037;-61
2021/12/03 00:33:15;;;;;;;2.63;0.90;;;;;;;;;;5037275;28;20102;-62
2021/12/03 00:35:41;;;;;;;2.15;0.70;;;;;;;;;;5037340;28;20032;-61
2021/12/03 00:38:06;;;;;;;0.70;0.55;;;;;;;;;;5038906;28;20082;-63
2021/12/03 00:40:37;;;;;;;2.78;0.70;;;;;;;;;;5069720;28;20381;-61
2021/12/03 00:43:05;;;;;;;2.65;0.88;;;;;;;;;;5037991;28;20099;-63
2021/12/03 00:45:32;;;;;;;1.65;0.70;;;;;;;;;;5038218;28;20033;-62
2021/12/03 00:47:58;;;;;;;1.50;0.68;;;;;;;;;;5036934;28;20029;-60
2021/12/03 00:50:23;;;;;;;1.13;0.70;;;;;;;;;;5038861;28;20097;-62
2021/12/03 00:52:51;;;;;;;1.45;0.73;;;;;;;;;;5037947;28;20029;-61
2021/12/03 00:55:21;;;;;;;1.33;0.80;;;;;;;;;;5038713;28;20603;-63
2021/12/03 00:57:47;;;;;;;7.90;1.13;;;;;;;;;;5039403;28;20101;-63
2021/12/03 01:00:17;;;;;;;1.45;0.90;;;;;;;;;;5035027;28;20456;-61
2021/12/03 01:02:46;;;;;;;0.85;0.80;;;;;;;;;;5035231;28;20045;-61
2021/12/03 01:05:12;;;;;;;0.68;0.60;;;;;;;;;;5039036;28;20037;-61
2021/12/03 01:07:37;;;;;;;3.08;1.05;;;;;;;;;;5038673;28;20063;-64
2021/12/03 01:10:04;;;;;;;1.25;0.77;;;;;;;;;;5037764;28;20454;-63
2021/12/03 01:12:30;;;;;;;0.93;0.73;;;;;;;;;;5038253;28;20606;-61
2021/12/03 01:14:58;;;;;;;1.05;0.60;;;;;;;;;;5039329;28;20127;-62
2021/12/03 01:17:23;;;;;;;1.25;0.85;;;;;;;;;;5034414;28;22023;-61
2021/12/03 01:19:51;;;;;;;1.38;0.88;;;;;;;;;;5038678;28;20051;-61
2021/12/03 01:22:19;;;;;;;1.27;0.80;;;;;;;;;;5038152;28;20025;-61
2021/12/03 01:24:49;;;;;;;2.95;1.00;;;;;;;;;;5037406;28;20083;-60
2021/12/03 01:27:15;;;;;;;2.22;1.00;;;;;;;;;;5037089;28;20040;-62
2021/12/03 01:29:42;;;;;;;1.58;0.98;;;;;;;;;;5036912;28;20510;-61
2021/12/03 01:32:10;;;;;;;2.33;0.95;;;;;;;;;;5036273;28;20112;-60
2021/12/03 01:34:36;;;;;;;1.85;0.90;;;;;;;;;;5036886;28;20571;-60
2021/12/03 01:37:02;;;;;;;0.82;0.68;;;;;;;;;;5037670;28;20426;-61
2021/12/03 01:39:28;;;;;;;1.23;0.77;;;;;;;;;;5036382;28;20063;-63
2021/12/03 01:41:55;;;;;;;1.65;0.90;;;;;;;;;;5036617;28;20040;-62
2021/12/03 01:44:23;;;;;;;0.82;0.70;;;;;;;;;;5034610;28;20049;-60
2021/12/03 01:46:48;;;;;;;3.10;1.08;;;;;;;;;;5036619;28;20115;-61
2021/12/03 01:49:14;;;;;;;1.42;0.90;;;;;;;;;;5037091;28;20088;-60
2021/12/03 01:51:40;;;;;;;1.30;1.00;;;;;;;;;;5036975;28;20064;-62
2021/12/03 01:54:06;;;;;;;2.60;1.15;;;;;;;;;;5034668;28;20096;-63
2021/12/03 01:56:36;;;;;;;0.95;0.80;;;;;;;;;;5035066;28;20038;-58
2021/12/03 01:59:04;;;;;;;3.05;1.08;;;;;;;;;;5035928;28;20044;-61
2021/12/03 02:01:29;;;;;;;2.47;1.25;;;;;;;;;;5034541;28;20049;-61
2021/12/03 02:04:00;;;;;;;1.13;0.93;;;;;;;;;;5035070;28;20687;-61
2021/12/03 02:06:28;;;;;;;1.38;0.93;;;;;;;;;;5038051;28;20093;-62
2021/12/03 02:08:54;;;;;;;1.08;0.77;;;;;;;;;;5036709;28;20078;-60
2021/12/03 02:11:19;;;;;;;2.22;1.02;;;;;;;;;;5034926;28;20021;-63
2021/12/03 02:13:48;;;;;;;2.13;0.82;;;;;;;;;;5024041;28;20412;-60
2021/12/03 02:16:15;;;;;;;1.23;0.60;;;;;;;;;;5068748;28;20111;-61
2021/12/03 02:18:41;;;;;;;2.05;0.75;;;;;;;;;;5035563;28;20112;-61
2021/12/03 02:21:07;;;;;;;1.88;0.70;;;;;;;;;;5035287;28;20116;-60
2021/12/03 02:23:33;;;;;;;0.98;0.65;;;;;;;;;;5035961;28;20103;-61
2021/12/03 02:25:59;;;;;;;1.42;0.55;;;;;;;;;;5034347;28;20033;-61
2021/12/03 02:28:25;;;;;;;1.83;0.90;;;;;;;;;;5035961;28;20033;-60
2021/12/03 02:30:52;;;;;;;2.03;0.88;;;;;;;;;;5036923;28;20059;-62
2021/12/03 02:33:20;;;;;;;1.75;0.85;;;;;;;;;;5036108;28;20141;-60
2021/12/03 02:35:46;;;;;;;1.73;1.05;;;;;;;;;;5035510;28;20017;-61
2021/12/03 02:38:13;;;;;;;0.68;0.68;;;;;;;;;;5019599;28;20474;-61
2021/12/03 02:40:41;;;;;;;1.05;0.88;;;;;;;;;;5033352;28;20039;-63
2021/12/03 02:43:07;;;;;;;1.63;0.65;;;;;;;;;;5036379;28;20043;-61
2021/12/03 02:45:35;;;;;;;1.33;0.80;;;;;;;;;;5033916;28;20029;-64
2021/12/03 02:48:02;;;;;;;3.65;0.85;;;;;;;;;;5034781;28;20089;-60
2021/12/03 02:50:28;;;;;;;1.33;0.70;;;;;;;;;;5033252;28;20083;-60
2021/12/03 02:52:53;;;;;;;0.75;0.75;;;;;;;;;;5037307;28;20036;-61
2021/12/03 02:55:19;;;;;;;2.20;1.00;;;;;;;;;;5033535;28;20024;-62
2021/12/03 02:57:44;;;;;;;1.77;0.90;;;;;;;;;;5028749;28;20052;-60
2021/12/03 03:00:11;;;;;;;2.60;0.80;;;;;;;;;;5036842;28;20057;-61
2021/12/03 03:02:38;;;;;;;1.23;0.70;;;;;;;;;;5037972;28;20136;-59
2021/12/03 03:05:04;;;;;;;3.33;1.02;;;;;;;;;;5037725;28;20033;-61
2021/12/03 03:07:31;;;;;;;1.55;0.90;;;;;;;;;;5037444;28;21913;-61
2021/12/03 03:09:58;;;;;;;1.42;0.80;;;;;;;;;;5036901;28;20041;-62
2021/12/03 03:12:27;;;;;;;2.13;1.27;;;;;;;;;;5035791;28;20112;-61
2021/12/03 03:14:57;;;;;;;1.90;1.00;;;;;;;;;;5038073;28;20041;-62
2021/12/03 03:17:23;;;;;;;3.28;1.20;;;;;;;;;;5037770;28;20052;-61
2021/12/03 03:19:49;;;;;;;1.80;0.80;;;;;;;;;;5036407;28;20033;-65
2021/12/03 03:22:17;;;;;;;1.52;1.02;;;;;;;;;;5035061;28;20036;-59
2021/12/03 03:24:42;;;;;;;1.38;1.20;;;;;;;;;;5035883;28;20029;-61
2021/12/03 03:27:08;;;;;;;1.10;1.00;;;;;;;;;;5036599;28;20496;-62
2021/12/03 03:29:36;;;;;;;2.40;0.80;;;;;;;;;;5067986;28;20029;-59
2021/12/03 03:32:02;;;;;;;1.23;1.10;;;;;;;;;;5022159;28;20131;-62
2021/12/03 03:34:27;;;;;;;2.05;0.93;;;;;;;;;;5034942;28;20637;-61
2021/12/03 03:36:53;;;;;;;1.38;1.10;;;;;;;;;;5034253;28;20021;-61
2021/12/03 03:39:20;;;;;;;2.25;0.98;;;;;;;;;;5036488;28;20120;-63
2021/12/03 03:41:45;;;;;;;1.38;1.20;;;;;;;;;;5034286;28;20416;-62
2021/12/03 03:44:11;;;;;;;2.95;1.50;;;;;;;;;;5037887;28;20052;-60
2021/12/03 03:46:38;;;;;;;2.50;1.63;;;;;;;;;;5035192;28;20033;-62
2021/12/03 03:49:03;;;;;;;2.67;1.65;;;;;;;;;;5034347;28;20472;-59
2021/12/03 03:51:29;;;;;;;2.15;1.50;;;;;;;;;;5035406;28;20033;-62
2021/12/03 03:53:57;;;;;;;4.07;1.50;;;;;;;;;;5034536;28;20022;-61
2021/12/03 03:56:22;;;;;;;5.30;2.10;;;;;;;;;;5038475;28;20025;-62
2021/12/03 03:58:48;;;;;;;2.17;1.60;;;;;;;;;;5033379;28;20025;-61
2021/12/03 04:01:16;;;;;;;3.60;1.80;;;;;;;;;;5035289;28;20060;-60
2021/12/03 04:03:45;;;;;;;3.15;1.70;;;;;;;;;;5047172;28;20037;-61
2021/12/03 04:06:11;;;;;;;4.25;2.00;;;;;;;;;;5037036;28;20052;-60
2021/12/03 04:08:39;;;;;;;2.03;1.65;;;;;;;;;;5039091;28;20067;-61
2021/12/03 04:11:07;;;;;;;3.95;2.10;;;;;;;;;;5041556;28;21911;-61
2021/12/03 04:13:32;;;;;;;3.42;2.03;;;;;;;;;;5039589;28;20041;-61
2021/12/03 04:16:00;;;;;;;4.07;2.10;;;;;;;;;;5041502;28;20033;-61
2021/12/03 04:18:26;;;;;;;4.15;1.95;;;;;;;;;;5036519;28;20403;-61
2021/12/03 04:20:51;;;;;;;4.10;2.10;;;;;;;;;;5042355;28;20071;-65
2021/12/03 04:23:18;;;;;;;3.08;1.98;;;;;;;;;;5037038;28;20091;-64
2021/12/03 04:25:44;;;;;;;2.95;1.80;;;;;;;;;;5038479;28;20136;-64
2021/12/03 04:28:12;;;;;;;2.33;1.67;;;;;;;;;;5035126;28;20514;-62
2021/12/03 04:30:38;;;;;;;2.90;2.10;;;;;;;;;;5069367;28;20095;-64
2021/12/03 04:33:08;;;;;;;2.72;1.98;;;;;;;;;;5037422;28;20025;-61
2021/12/03 04:35:33;;;;;;;4.65;2.35;;;;;;;;;;5039987;28;20029;-61
2021/12/03 04:38:02;;;;;;;3.47;2.00;;;;;;;;;;5037779;28;20482;-62
2021/12/03 04:40:28;;;;;;;3.25;2.15;;;;;;;;;;5038155;28;20051;-63
2021/12/03 04:42:54;;;;;;;4.47;2.13;;;;;;;;;;5035466;28;20467;-62
2021/12/03 04:45:22;;;;;;;3.15;2.17;;;;;;;;;;5038750;28;20026;-62
2021/12/03 04:47:51;;;;;;;3.22;1.90;;;;;;;;;;5037667;28;20040;-59
2021/12/03 04:50:21;;;;;;;5.70;2.30;;;;;;;;;;5037483;28;20433;-63
2021/12/03 04:52:48;;;;;;;2.60;2.10;;;;;;;;;;5037738;28;20017;-62
2021/12/03 04:55:14;;;;;;;2.10;1.85;;;;;;;;;;5036579;28;20025;-65
2021/12/03 04:57:40;;;;;;;1.98;1.70;;;;;;;;;;5036580;28;20037;-65
2021/12/03 05:00:09;;;;;;;2.35;2.08;;;;;;;;;;5037470;28;20124;-61
2021/12/03 05:02:37;;;;;;;2.83;2.00;;;;;;;;;;5039073;28;20029;-62
2021/12/03 05:05:05;;;;;;;3.33;1.90;;;;;;;;;;5037259;28;20060;-62
2021/12/03 05:07:42;;;;;;;2.22;2.00;;;;;;;;;;5037625;28;20451;-61
2021/12/03 05:10:09;;;;;;;5.57;2.63;;;;;;;;;;5037819;28;20113;-63
2021/12/03 05:12:37;;;;;;;3.15;1.92;;;;;;;;;;5037345;28;20104;-63
2021/12/03 05:15:04;;;;;;;3.03;1.85;;;;;;;;;;5037219;28;20102;-63
2021/12/03 05:17:29;;;;;;;3.38;1.85;;;;;;;;;;5036053;28;20311;-63
2021/12/03 05:19:55;;;;;;;2.70;1.88;;;;;;;;;;5035463;28;20133;-61
2021/12/03 05:22:20;;;;;;;2.55;1.95;;;;;;;;;;5035448;28;20056;-62
2021/12/03 05:24:46;;;;;;;3.83;2.25;;;;;;;;;;5038229;28;20055;-61
2021/12/03 05:27:13;;;;;;;2.45;1.83;;;;;;;;;;5037162;28;20025;-61
2021/12/03 05:29:40;;;;;;;2.30;1.67;;;;;;;;;;5031906;28;20033;-61
2021/12/03 05:32:05;;;;;;;2.03;1.65;;;;;;;;;;5037349;28;20121;-60
2021/12/03 05:34:31;;;;;;;2.22;2.00;;;;;;;;;;5039099;28;20119;-63
2021/12/03 05:36:59;;;;;;;2.75;1.70;;;;;;;;;;5038865;28;20075;-62
2021/12/03 05:39:25;;;;;;;3.72;2.33;;;;;;;;;;5039385;28;20059;-62
2021/12/03 05:41:51;;;;;;;5.38;1.80;;;;;;;;;;5036478;28;20534;-63
2021/12/03 05:44:18;;;;;;;1.42;1.33;;;;;;;;;;5053600;28;20041;-61
2021/12/03 05:46:44;;;;;;;3.67;1.55;;;;;;;;;;5035196;28;21238;-63
2021/12/03 05:49:10;;;;;;;1.98;1.42;;;;;;;;;;5039002;28;20029;-61
2021/12/03 05:51:37;;;;;;;2.65;1.52;;;;;;;;;;5037029;28;20028;-62
2021/12/03 05:54:03;;;;;;;2.22;1.58;;;;;;;;;;5037578;28;20055;-62
2021/12/03 05:56:29;;;;;;;2.88;1.33;;;;;;;;;;5037509;28;20322;-63
2021/12/03 05:58:54;;;;;;;3.10;1.52;;;;;;;;;;5055268;28;20124;-64
2021/12/03 06:01:19;;;;;;;2.25;1.38;;;;;;;;;;5054255;28;20065;-64
2021/12/03 06:03:46;;;;;;;1.95;1.50;;;;;;;;;;5037940;28;20427;-63
2021/12/03 06:06:12;;;;;;;2.58;1.20;;;;;;;;;;5037925;28;20512;-62
2021/12/03 06:08:38;;;;;;;1.33;1.05;;;;;;;;;;5043023;28;21883;-63
2021/12/03 06:11:03;;;;;;;2.15;0.95;;;;;;;;;;5040949;28;20029;-63
2021/12/03 06:13:29;;;;;;;3.67;1.45;;;;;;;;;;5036268;28;20109;-64
2021/12/03 06:15:57;;;;;;;3.42;0.93;;;;;;;;;;5036484;28;20025;-62
2021/12/03 06:18:22;;;;;;;1.90;1.00;;;;;;;;;;5036822;28;20153;-64
2021/12/03 06:20:55;;;;;;;2.03;1.10;;;;;;;;;;5037595;28;20104;-62
2021/12/03 06:23:22;;;;;;;2.80;1.25;;;;;;;;;;5038418;28;20081;-64
2021/12/03 06:25:53;;;;;;;1.50;0.82;;;;;;;;;;5037435;28;20033;-63
2021/12/03 06:28:18;;;;;;;1.63;0.70;;;;;;;;;;5037119;28;20881;-63
2021/12/03 06:30:43;;;;;;;2.65;1.00;;;;;;;;;;5037565;28;20104;-62
2021/12/03 06:33:09;;;;;;;6.65;1.88;;;;;;;;;;5037793;28;20030;-61
2021/12/03 06:35:34;;;;;;;4.07;2.13;;;;;;;;;;5039307;28;20029;-61
2021/12/03 06:38:01;;;;;;;6.95;4.20;;;;;;;;;;5036699;28;20037;-60
2021/12/03 06:40:27;;;;;;;1.80;1.02;;;;;;;;;;5035703;28;20033;-62
2021/12/03 06:42:57;;;;;;;2.65;1.20;;;;;;;;;;5036605;28;20344;-61
2021/12/03 06:45:22;;;;;;;2.00;1.30;;;;;;;;;;5038129;28;20425;-61
2021/12/03 06:47:52;;;;;;;1.98;1.08;;;;;;;;;;5036915;28;20124;-64
2021/12/03 06:50:18;;;;;;;3.17;1.15;;;;;;;;;;5038555;28;20025;-62
2021/12/03 06:52:47;;;;;;;2.38;1.30;;;;;;;;;;5037832;28;20101;-61
2021/12/03 06:55:14;;;;;;;1.75;1.20;;;;;;;;;;5037480;28;20189;-61
2021/12/03 06:57:44;;;;;;;2.35;1.00;;;;;;;;;;5038818;28;20025;-61
2021/12/03 07:00:12;;;;;;;1.55;1.00;;;;;;;;;;5036047;28;20606;-63
2021/12/03 07:02:40;;;;;;;1.55;1.08;;;;;;;;;;5037234;28;20041;-62
2021/12/03 07:05:06;;;;;;;1.92;1.15;;;;;;;;;;5072029;28;20802;-63
2021/12/03 07:07:34;;;;;;;1.13;0.98;;;;;;;;;;5036479;28;20116;-63
2021/12/03 07:10:00;;;;;;;1.38;0.85;;;;;;;;;;5037332;28;20036;-65
2021/12/03 07:12:26;;;;;;;1.40;0.98;;;;;;;;;;5037629;28;20078;-63
2021/12/03 07:14:55;;;;;;;3.80;1.10;;;;;;;;;;5038460;28;20386;-64
2021/12/03 07:17:23;;;;;;;1.63;1.20;;;;;;;;;;5036631;28;20037;-61
2021/12/03 07:19:48;;;;;;;1.38;0.73;;;;;;;;;;5036946;28;20106;-62
2021/12/03 07:22:16;;;;;;;2.45;1.00;;;;;;;;;;5032979;28;20489;-66
2021/12/03 07:24:42;;;;;;;1.50;1.00;;;;;;;;;;5038243;28;20040;-63
2021/12/03 07:27:09;;;;;;;1.55;1.10;;;;;;;;;;5036096;28;20620;-64
2021/12/03 07:29:35;;;;;;;2.90;1.20;;;;;;;;;;5037176;28;20044;-62
2021/12/03 07:32:00;;;;;;;2.05;0.93;;;;;;;;;;5037035;28;20124;-65
2021/12/03 07:34:26;;;;;;;3.72;1.25;;;;;;;;;;5036479;28;20584;-64
2021/12/03 07:36:52;;;;;;;1.65;1.08;;;;;;;;;;5036666;28;20025;-62
2021/12/03 07:39:20;;;;;;;1.27;0.65;;;;;;;;;;5030270;28;20029;-61
2021/12/03 07:41:48;;;;;;;1.20;1.00;;;;;;;;;;5038714;28;20083;-60
2021/12/03 07:44:14;;;;;;;1.77;0.90;;;;;;;;;;5038037;28;20073;-62
2021/12/03 07:46:40;;;;;;;1.67;1.00;;;;;;;;;;5040785;28;20178;-63
2021/12/03 07:49:05;;;;;;;2.00;1.05;;;;;;;;;;5040275;28;20052;-63
2021/12/03 07:51:30;;;;;;;1.45;0.90;;;;;;;;;;5040088;28;20351;-62
2021/12/03 07:53:56;;;;;;;1.83;0.80;;;;;;;;;;5040952;28;20041;-63
2021/12/03 07:56:22;;;;;;;2.03;0.93;;;;;;;;;;5038523;28;20044;-62
2021/12/03 07:58:49;;;;;;;2.60;0.80;;;;;;;;;;5042012;28;20024;-63
2021/12/03 08:01:18;;;;;;;2.47;1.30;;;;;;;;;;5039360;28;20545;-62
2021/12/03 08:03:46;;;;;;;2.05;0.73;;;;;;;;;;5038961;28;20514;-66
2021/12/03 08:06:18;;;;;;;3.17;0.82;;;;;;;;;;5041488;28;20127;-63
2021/12/03 08:08:44;;;;;;;1.73;0.68;;;;;;;;;;5035166;28;20141;-63
2021/12/03 08:11:09;;;;;;;2.83;0.70;;;;;;;;;;5040885;28;20131;-62
2021/12/03 08:13:37;;;;;;;0.90;0.57;;;;;;;;;;5041741;28;20542;-63
2021/12/03 08:16:03;;;;;;;7.07;0.80;;;;;;;;;;5040543;28;20112;-64
2021/12/03 08:18:29;;;;;;;3.58;0.88;;;;;;;;;;5042821;28;20029;-63
2021/12/03 08:20:57;;;;;;;2.28;0.70;;;;;;;;;;5031446;28;20036;-62
2021/12/03 08:23:23;;;;;;;3.10;0.77;;;;;;;;;;5040767;28;20025;-64
2021/12/03 08:25:50;;;;;;;1.98;0.82;;;;;;;;;;5025207;28;20453;-63
2021/12/03 08:28:16;;;;;;;1.88;0.60;;;;;;;;;;5040229;28;20109;-62
2021/12/03 08:30:42;;;;;;;3.03;1.25;;;;;;;;;;5042074;28;20063;-62
2021/12/03 08:33:10;;;;;;;0.50;0.38;;;;;;;;;;5040110;28;20426;-60
2021/12/03 08:35:36;;;;;;;1.13;0.60;;;;;;;;;;5038561;28;20025;-63
2021/12/03 08:38:01;;;;;;;2.13;1.08;;;;;;;;;;5038851;28;20040;-66
2021/12/03 08:40:27;;;;;;;3.15;0.80;;;;;;;;;;5039290;28;20109;-63
2021/12/03 08:42:53;;;;;;;1.00;0.52;;;;;;;;;;5038412;28;20365;-63
2021/12/03 08:45:20;;;;;;;1.20;0.60;;;;;;;;;;5023113;28;20095;-63
2021/12/03 08:47:49;;;;;;;2.83;0.73;;;;;;;;;;5039100;28;20033;-61
2021/12/03 08:50:18;;;;;;;1.45;0.60;;;;;;;;;;5038367;28;20021;-65
2021/12/03 08:53:03;;;;;;;0.75;0.40;;;;;;;;;;5037904;28;20037;-61
2021/12/03 08:55:29;;;;;;;1.17;0.60;;;;;;;;;;5055125;28;20029;-61
2021/12/03 08:57:59;;;;;;;2.92;0.70;;;;;;;;;;5040215;28;20851;-63
2021/12/03 09:00:24;;;;;;;1.40;0.70;;;;;;;;;;5053741;28;20052;-62
2021/12/03 09:02:55;;;;;;;1.77;0.65;;;;;;;;;;5035459;28;20382;-64
2021/12/03 09:05:20;;;;;;;3.13;0.75;;;;;;;;;;5036502;28;20473;-60
2021/12/03 09:07:46;;;;;;;1.45;0.75;;;;;;;;;;5038860;28;20029;-62
2021/12/03 09:10:13;;;;;;;1.88;0.70;;;;;;;;;;5039078;28;20623;-61
2021/12/03 09:12:41;;;;;;;1.85;0.93;;;;;;;;;;5039155;28;20032;-61
2021/12/03 09:15:13;;;;;;;1.10;0.90;;;;;;;;;;5041268;28;20087;-64
2021/12/03 09:17:47;;;;;;;3.15;0.77;;;;;;;;;;5042241;28;20466;-62
2021/12/03 09:23:02;;;;;;;2.67;0.93;;;;;;;;;;5040905;28;20040;-62
2021/12/03 09:25:35;;;;;;;0.52;0.50;;;;;;;;;;5039296;28;20029;-61
2021/12/03 09:28:07;;;;;;;2.85;0.90;;;;;;;;;;5039058;28;20482;-65
2021/12/03 09:30:39;;;;;;;3.00;1.05;;;;;;;;;;5036293;28;20040;-62
2021/12/03 09:33:07;;;;;;;2.47;1.02;;;;;;;;;;5039542;28;20204;-64
2021/12/03 09:35:35;;;;;;;1.13;0.60;;;;;;;;;;5037776;28;20047;-62
2021/12/03 09:38:01;;;;;;;1.38;0.70;;;;;;;;;;5039283;28;20079;-61
2021/12/03 09:40:34;;;;;;;1.80;1.05;;;;;;;;;;5035195;28;20033;-62
2021/12/03 09:43:00;;;;;;;6.97;0.77;;;;;;;;;;5039351;28;20048;-61
2021/12/03 09:45:26;;;;;;;1.30;0.75;;;;;;;;;;5036535;28;20120;-63
2021/12/03 09:47:53;;;;;;;2.53;1.17;;;;;;;;;;5036237;28;20021;-62
2021/12/03 09:50:18;;;;;;;2.00;0.95;;;;;;;;;;5037927;28;20040;-60
2021/12/03 09:55:20;;;;;;;1.27;1.00;;;;;;;;;;5036074;28;20038;-61
2021/12/03 09:58:02;;;;;;;1.80;1.10;;;;;;;;;;5037685;28;20674;-61
2021/12/03 10:03:18;;;;;;;1.70;1.10;;;;;;;;;;5038319;28;20042;-60
2021/12/03 10:17:25;;;;;;;1.58;1.17;;;;;;;;;;5042281;28;21241;-62
